Spurger, Texas
Current Conditions -  °F | °C
As of 9:55 AM on Sunday 25 Jan 2015 (Local Time) from KJAS Reporting Station
Clear Clear  
Wind Chill: 46°   Ceiling: Unl
Heat Index: 49°   Visibility: 10mi
Dew Point: 41°   Wind: 7mph
Humidity: 73%   Direction: 240°WSW
Pressure: 30.02"   Gusts: NA
Location:  30.69°N, 94.18°W
Report Text: KJAS 251555Z AUTO 24006KT 10SM CLR 10/05 A3002 RMK AO2 T00960049
Loading
Personal Weather Stations






























Interactive Weather Map New forecast layout! Learn more

10-Day Weather Forecast

Advertisements
Track Severe Weather on mobile